< < Back
Terminal Aerodrome Forecast


Current Version              Previous Versions:   1  2  3  4  5  6  7  8  9  

Terminal Aerodrome Forecast

977
FTUS44 KBMX 300437 AAB
TAFMGM
TAF AMD
KMGM 300437Z 3005/3024 13006KT 6SM SHRA SCT025 BKN050
     FM300700 VRB03KT P6SM VCSH BKN150
     FM300900 00000KT 4SM BR OVC010
      TEMPO 3010/3013 2SM BR OVC007
     FM301700 05006KT P6SM VCSH BKN035=

Latest METAR

962
SAUS80 KWBC 300600 RRA
MTRMGM
METAR KMGM 300553Z 00000KT 10SM -RA BKN013 BKN110 23/21 A3007 RMK AO2
RAB47 SLP179 P0000 60000 T02280206 10239 20228 403170222
56006


USA.gov is the U.S. government's official web portal to all federal, state and local government web resources and services.